Allenwood, Pennsylvania
Current Conditions -  °F | °C
As of 6:54 AM on Tuesday 21 Oct 2014 (Local Time) from KIPT Reporting Station
Light Rain Light Rain  
Wind Chill: 48°   Ceiling: 9000
Heat Index: 48°   Visibility: 10mi
Dew Point: 45°   Wind: 0mph
Humidity: 89%   Direction: NA
Pressure: 29.83"   Gusts: NA
Location:  41.11°N, 76.9°W
Report Text: KIPT 211054Z 00000KT 10SM -RA SCT065 OVC090 09/07 A2983 RMK AO2 RAB00 SLP103 P0002 T00890072
Loading
Personal Weather Stations






























Interactive Weather Map New forecast layout! Learn more

10-Day Weather Forecast

Advertisements
Track Severe Weather on mobile